الصفحة الرئيسية
METAR-TAF:

METAR-TAF

مطار :

ميناء القاهرة الجوي

القاهرة, مصر

دائرة عرض: 30-08N, خط طول: 031-24E, ارتفاع: 64 متر

مراقبة الطقس الحالي

تاريخ ووقت الإصدار 37 دقيقة قبل الساعة 06:00UTC
ريح 8 عقدة من الجنوب الغربي
درجة الحرارة 18°درجة مئوية
الرطوبة 56%
ضغط 1020 hPa
الرؤية 10 كم أو أكثر
الغيوم لا تقل 1500 م ولا وجود لمزنة ركامية السحاب الأسود

METAR: HECA 110600Z 22008KT CAVOK 18/09 Q1020 NOSIG

زمن: 08:37 (06:37 UTC)

توقعات

تاريخ ووقت الإصدار 1ساعة و 37 دقيقة قبل الساعة 05:00UTC
التوقعات صالحة من11 الساعة 06 UTC إلى 12 الساعة 12 UTC
ريح 8 عقدة من الجنوب/الجنوب الغربي
الرؤية: 6000 متر
مؤقت
من 11 الساعة 06 UTC إلى 11 الساعة 08 UTC
مؤقت
من 11 الساعة 08 UTC إلى 11 الساعة 18 UTC
ريح 10 عقدة من الجنوب الغربي تتزايد حتى 20 عقدة
غيوم مفككة على ارتفاع 2500 قدم

TAF: HECA 110500Z 1106/1212 20008KT 6000 NSC TEMPO 1106/1108 4000HZ TEMPO 1108/1118 22010G20KT 4000SA BKN025

أرصاد الطقس والتوقعات من أكثر من 4000 مطار (تقارير الطقس للمطار METAR والتنبؤ بالطقس بالمطارTAF).

المحطات المتاحة هي النقط الصفراء والحمراء على الخريطة.

حرك المؤشر فوق النقطة لمعرفة اسم المحطة.

ثم انقر لمعرفة أرصاد وتوقعات الطقس.

لتغيير الخارطة: اضغط على الأزرار الخضراء مع رمز الصليب الأسود للتكبير. على الزر الأخضر مع شرطة للتصغير، أو على الأسهم الخضراء للخرائط المجاورة.


METAR-TAF: